Ochopee, FL

11:23 AM EDT on July 27, 2016 (GMT -0400)
Port of the Islands | | Change Station

Elev 0 ft 25.95 °N, 81.51 °W | Updated 6 minutes ago

Mostly Cloudy
Mostly Cloudy
89.1 °F
Feels Like 101 °F
N
4.2
Wind Variable Wind from SSW

Today
High -- | Low -- °F
--% Chance of Precip.
Yesterday
High -- | Low -- °F
Precip. -- in
Pressure 30.08 in
Visibility 10.0 miles
Clouds Mostly Cloudy 3200 ft
Mostly Cloudy 4300 ft
Heat Index 101 °F
Dew Point 76 °F
Humidity 66%
Rainfall 0.00 in
Snow Depth Not available.
6:49 AM 8:14 PM
Last Quarter, 42% visible
METAR KMKY 271515Z AUTO 10011G15KT 10SM BKN032 BKN043 32/23 A3008 RMK AO1
Pressure 30.08 in
Visibility 10.0 miles
Clouds Mostly Cloudy 3200 ft
Mostly Cloudy 4300 ft
Heat Index 101 °F
Dew Point 76 °F
Humidity 66%
Rainfall 0.00 in
Snow Depth Not available.
6:49 AM 8:14 PM
Last Quarter, 42% visible
METAR KMKY 271515Z AUTO 10011G15KT 10SM BKN032 BKN043 32/23 A3008 RMK AO1

10-Day Weather Forecast

Almanac

Astronomy

Jul. 27, 2016 Rise Set
Actual Time
Civil Twilight
Nautical Twilight
Astronomical Twilight
Moon
Length of Visible Light
Length of Day
Tomorrow will be .
, % of the Moon is Illuminated

Today's Extremes

State Highs State Lows

Community

WunderPhotos

Upload Photos

1,927,859 photos uploaded!

WunderBlog® & News

Nearby

Air Quality

  Air Quality AQ Index Pollutant
Not available.

Snow Depth

Station Depth Elevation

Earthquake Activity

City Distance Mag. Time & Date
Minimum magnitude displayed is 2.5.

Coastal Water Temperatures

Place Temperature

Stations

Nearby Weather Stations

Station Location Temp. Windchill Dew Point Humidity Wind Precip. Elev Updated Type
                   

Watches & Warnings

There are currently no watches in effect.